Time;durP1;ratioP1;P1;durP2;ratioP2;P2;SDS_P1;SDS_P2;PMS_P1;PMS_P2;Temp;Humidity;BMP_temperature;BMP_pressure;BME280_temperature;BME280_humidity;BME280_pressure;Samples;Min_cycle;Max_cycle;Signal;HPM_P1;HPM_P2
2023/07/28 00:01:12;;;;;;;3.53;3.10;;;;;;;;;;5155862;27;20219;-63
2023/07/28 00:03:39;;;;;;;2.88;2.78;;;;;;;;;;5153243;27;20442;-64
2023/07/28 00:06:06;;;;;;;3.58;2.85;;;;;;;;;;5152288;27;20199;-64
2023/07/28 00:08:32;;;;;;;2.92;2.72;;;;;;;;;;5153434;27;20202;-64
2023/07/28 00:10:58;;;;;;;3.63;3.17;;;;;;;;;;5155577;27;20197;-63
2023/07/28 00:13:24;;;;;;;6.85;2.95;;;;;;;;;;5155005;27;20202;-63
2023/07/28 00:15:51;;;;;;;3.00;2.90;;;;;;;;;;5152183;27;20498;-63
2023/07/28 00:18:18;;;;;;;4.93;3.10;;;;;;;;;;5151937;27;20461;-63
2023/07/28 00:20:46;;;;;;;3.13;3.03;;;;;;;;;;5154978;27;20193;-63
2023/07/28 00:23:12;;;;;;;3.38;3.05;;;;;;;;;;5155263;27;20211;-63
2023/07/28 00:25:38;;;;;;;3.25;2.78;;;;;;;;;;5153553;27;20224;-63
2023/07/28 00:28:05;;;;;;;4.03;2.90;;;;;;;;;;5152113;27;20217;-63
2023/07/28 00:30:31;;;;;;;2.83;2.63;;;;;;;;;;5152991;27;20506;-63
2023/07/28 00:32:57;;;;;;;7.10;3.28;;;;;;;;;;5155198;27;20260;-63
2023/07/28 00:35:24;;;;;;;3.78;3.00;;;;;;;;;;5155781;27;20194;-63
2023/07/28 00:37:51;;;;;;;3.50;3.20;;;;;;;;;;5143285;27;20195;-63
2023/07/28 00:40:17;;;;;;;3.25;3.10;;;;;;;;;;5151949;27;20497;-63
2023/07/28 00:42:44;;;;;;;3.05;2.85;;;;;;;;;;5154312;27;20202;-63
2023/07/28 00:45:10;;;;;;;3.15;2.95;;;;;;;;;;5155384;27;20217;-63
2023/07/28 00:47:37;;;;;;;3.78;3.25;;;;;;;;;;5153346;27;20201;-63
2023/07/28 00:50:04;;;;;;;3.60;3.35;;;;;;;;;;5151557;27;20510;-63
2023/07/28 00:52:30;;;;;;;4.57;2.67;;;;;;;;;;5152186;27;20209;-63
2023/07/28 00:54:57;;;;;;;4.18;2.90;;;;;;;;;;5155264;27;20394;-63
2023/07/28 00:57:24;;;;;;;3.40;3.17;;;;;;;;;;5155256;27;20194;-63
2023/07/28 00:59:50;;;;;;;5.28;2.88;;;;;;;;;;5142953;27;20217;-63
2023/07/28 01:02:16;;;;;;;2.80;2.65;;;;;;;;;;5151325;27;20202;-63
2023/07/28 01:04:43;;;;;;;3.58;3.28;;;;;;;;;;5153918;27;20207;-63
2023/07/28 01:07:10;;;;;;;5.13;3.10;;;;;;;;;;5158742;27;20193;-63
2023/07/28 01:09:39;;;;;;;3.00;2.90;;;;;;;;;;5157745;27;20205;-63
2023/07/28 01:12:09;;;;;;;3.92;3.55;;;;;;;;;;5155422;27;20217;-63
2023/07/28 01:14:36;;;;;;;4.28;3.53;;;;;;;;;;5156956;27;20506;-63
2023/07/28 01:17:02;;;;;;;3.30;3.00;;;;;;;;;;5159075;27;20216;-63
2023/07/28 01:19:28;;;;;;;3.38;3.08;;;;;;;;;;5158786;27;20281;-63
2023/07/28 01:25:03;;;;;;;3.10;2.67;;;;;;;;;;5147414;27;20173;-63
2023/07/28 01:27:31;;;;;;;2.90;2.80;;;;;;;;;;5155568;27;20246;-63
2023/07/28 01:29:57;;;;;;;2.90;2.70;;;;;;;;;;5159006;27;20205;-63
2023/07/28 01:32:23;;;;;;;3.65;3.10;;;;;;;;;;5151043;27;20201;-63
2023/07/28 01:34:50;;;;;;;4.45;3.28;;;;;;;;;;5158330;27;20420;-63
2023/07/28 01:37:16;;;;;;;3.28;3.08;;;;;;;;;;5158905;27;20493;-63
2023/07/28 01:39:42;;;;;;;4.32;3.28;;;;;;;;;;5156479;27;20224;-63
2023/07/28 01:42:08;;;;;;;3.83;3.15;;;;;;;;;;5154799;27;20198;-63
2023/07/28 01:44:36;;;;;;;3.78;2.83;;;;;;;;;;5156242;27;20198;-63
2023/07/28 01:47:02;;;;;;;3.60;3.35;;;;;;;;;;5158836;27;20202;-63
2023/07/28 01:49:28;;;;;;;4.85;3.50;;;;;;;;;;5158390;27;20189;-63
2023/07/28 01:51:55;;;;;;;3.80;2.97;;;;;;;;;;5154897;27;20201;-63
2023/07/28 01:54:21;;;;;;;3.25;2.92;;;;;;;;;;5154972;27;20194;-63
2023/07/28 01:56:47;;;;;;;3.45;3.08;;;;;;;;;;5157345;27;20198;-63
2023/07/28 01:59:14;;;;;;;4.15;3.42;;;;;;;;;;5158556;27;20213;-63
2023/07/28 02:01:41;;;;;;;3.25;3.05;;;;;;;;;;5156480;27;20201;-63
2023/07/28 02:04:08;;;;;;;4.57;3.08;;;;;;;;;;5154444;27;20201;-63
2023/07/28 02:06:34;;;;;;;3.30;3.10;;;;;;;;;;5155395;27;20198;-63
2023/07/28 02:09:00;;;;;;;3.08;2.80;;;;;;;;;;5158431;27;20520;-63
2023/07/28 02:11:26;;;;;;;4.47;3.28;;;;;;;;;;5157990;27;20194;-63
2023/07/28 02:13:53;;;;;;;3.63;3.03;;;;;;;;;;5154761;27;20225;-63
2023/07/28 02:16:19;;;;;;;3.15;2.97;;;;;;;;;;5154288;27;20195;-63
2023/07/28 02:18:47;;;;;;;3.50;3.30;;;;;;;;;;5156500;27;20226;-63
2023/07/28 02:21:13;;;;;;;5.20;3.60;;;;;;;;;;5157989;27;20493;-63
2023/07/28 02:23:39;;;;;;;3.53;3.22;;;;;;;;;;5156227;27;20397;-64
2023/07/28 02:26:05;;;;;;;3.83;3.47;;;;;;;;;;5154214;27;20225;-63
2023/07/28 02:28:31;;;;;;;4.38;3.47;;;;;;;;;;5154288;27;20447;-63
2023/07/28 02:30:58;;;;;;;4.57;4.10;;;;;;;;;;5157813;27;20509;-64
2023/07/28 02:33:24;;;;;;;4.57;3.83;;;;;;;;;;5157510;27;20570;-63
2023/07/28 02:35:52;;;;;;;3.58;3.28;;;;;;;;;;5154676;27;20558;-63
2023/07/28 02:38:18;;;;;;;4.15;3.67;;;;;;;;;;5153886;27;20525;-63
2023/07/28 02:40:44;;;;;;;3.75;3.42;;;;;;;;;;5155939;27;20533;-63
2023/07/28 02:43:10;;;;;;;3.45;3.25;;;;;;;;;;5157428;27;20564;-63
2023/07/28 02:45:37;;;;;;;3.80;3.50;;;;;;;;;;5156496;27;20197;-63
2023/07/28 02:48:03;;;;;;;4.35;3.53;;;;;;;;;;5153812;27;20510;-63
2023/07/28 02:50:29;;;;;;;3.38;3.17;;;;;;;;;;5153807;27;20288;-63
2023/07/28 02:52:57;;;;;;;5.13;3.85;;;;;;;;;;5156699;27;20215;-63
2023/07/28 02:55:23;;;;;;;3.63;3.42;;;;;;;;;;5157429;27;20194;-63
2023/07/28 02:57:49;;;;;;;3.30;3.13;;;;;;;;;;5154540;27;20201;-63
2023/07/28 03:00:16;;;;;;;3.53;3.33;;;;;;;;;;5153334;27;20221;-63
2023/07/28 03:02:42;;;;;;;6.45;3.53;;;;;;;;;;5153291;27;20198;-63
2023/07/28 03:05:08;;;;;;;4.20;3.45;;;;;;;;;;5153463;27;20403;-63
2023/07/28 03:07:34;;;;;;;5.50;4.13;;;;;;;;;;5153445;27;20198;-63
2023/07/28 03:10:02;;;;;;;4.45;3.50;;;;;;;;;;5156808;27;20197;-63
2023/07/28 03:12:28;;;;;;;3.83;3.63;;;;;;;;;;5156767;27;20193;-63
2023/07/28 03:14:55;;;;;;;4.20;3.90;;;;;;;;;;5153551;27;20195;-63
2023/07/28 03:17:21;;;;;;;3.15;2.97;;;;;;;;;;5151588;27;20300;-63
2023/07/28 03:19:47;;;;;;;3.42;3.22;;;;;;;;;;5147992;27;20218;-63
2023/07/28 03:22:13;;;;;;;3.55;3.20;;;;;;;;;;5156314;27;20194;-63
2023/07/28 03:24:40;;;;;;;3.53;3.33;;;;;;;;;;5155760;27;20219;-63
2023/07/28 03:27:08;;;;;;;3.25;3.00;;;;;;;;;;5152934;27;20214;-63
2023/07/28 03:29:34;;;;;;;3.85;3.10;;;;;;;;;;5152123;27;20194;-63
2023/07/28 03:32:01;;;;;;;3.75;3.55;;;;;;;;;;5156301;27;20234;-63
2023/07/28 03:34:27;;;;;;;3.53;3.33;;;;;;;;;;5156543;27;20231;-63
2023/07/28 03:36:54;;;;;;;3.92;3.45;;;;;;;;;;5153590;27;20213;-63
2023/07/28 03:39:20;;;;;;;5.55;3.40;;;;;;;;;;5152945;27;20286;-63
2023/07/28 03:41:47;;;;;;;3.65;3.45;;;;;;;;;;5154452;27;20221;-63
2023/07/28 03:44:16;;;;;;;3.45;3.15;;;;;;;;;;5156221;27;20198;-63
2023/07/28 03:46:42;;;;;;;3.95;3.65;;;;;;;;;;5155205;27;20431;-63
2023/07/28 03:49:08;;;;;;;3.35;3.15;;;;;;;;;;5152923;27;20271;-63
2023/07/28 03:51:35;;;;;;;3.65;3.45;;;;;;;;;;5152794;27;20219;-63
2023/07/28 03:54:02;;;;;;;3.75;3.45;;;;;;;;;;5144075;27;20198;-63
2023/07/28 03:56:28;;;;;;;4.47;3.97;;;;;;;;;;5152599;27;20395;-63
2023/07/28 03:58:55;;;;;;;5.47;3.70;;;;;;;;;;5155095;27;20399;-63
2023/07/28 04:01:22;;;;;;;4.10;3.80;;;;;;;;;;5155824;27;20197;-63
2023/07/28 04:03:49;;;;;;;4.82;3.50;;;;;;;;;;5155809;27;20203;-63
2023/07/28 04:06:16;;;;;;;4.22;3.88;;;;;;;;;;5156033;27;20201;-63
2023/07/28 04:08:42;;;;;;;3.65;3.50;;;;;;;;;;5154981;27;20198;-63
2023/07/28 04:11:09;;;;;;;5.18;4.10;;;;;;;;;;5152227;27;20235;-63
2023/07/28 04:13:35;;;;;;;4.25;3.47;;;;;;;;;;5152048;27;20378;-63
2023/07/28 04:16:02;;;;;;;4.93;3.72;;;;;;;;;;5143721;27;20493;-64
2023/07/28 04:18:29;;;;;;;3.55;3.35;;;;;;;;;;5152083;27;20431;-63
2023/07/28 04:20:56;;;;;;;3.78;2.95;;;;;;;;;;5154861;27;20225;-63
2023/07/28 04:23:22;;;;;;;3.92;3.33;;;;;;;;;;5155538;27;20194;-63
2023/07/28 04:25:48;;;;;;;3.33;3.03;;;;;;;;;;5153878;27;20266;-63
2023/07/28 04:28:14;;;;;;;3.55;3.35;;;;;;;;;;5152063;27;20426;-63
2023/07/28 04:30:41;;;;;;;3.58;3.20;;;;;;;;;;5152185;27;20195;-63
2023/07/28 04:33:07;;;;;;;4.80;3.30;;;;;;;;;;5155100;27;20200;-63
2023/07/28 04:35:34;;;;;;;3.95;3.65;;;;;;;;;;5155638;27;20204;-63
2023/07/28 04:38:01;;;;;;;6.53;3.30;;;;;;;;;;5152165;27;20202;-63
2023/07/28 04:40:27;;;;;;;3.90;3.70;;;;;;;;;;5151836;27;20218;-63
2023/07/28 04:42:53;;;;;;;6.57;4.20;;;;;;;;;;5153659;27;20198;-63
2023/07/28 04:45:19;;;;;;;7.80;3.67;;;;;;;;;;5155217;27;20420;-63
2023/07/28 04:47:46;;;;;;;3.88;3.53;;;;;;;;;;5154135;27;20208;-63
2023/07/28 04:50:12;;;;;;;8.68;3.88;;;;;;;;;;5151739;27;20192;-63
2023/07/28 04:52:40;;;;;;;4.25;3.70;;;;;;;;;;5151637;27;20213;-63
2023/07/28 04:55:06;;;;;;;6.03;3.72;;;;;;;;;;5143546;27;20240;-63
2023/07/28 04:57:32;;;;;;;7.35;3.58;;;;;;;;;;5151812;27;20402;-63
2023/07/28 04:59:58;;;;;;;3.92;3.50;;;;;;;;;;5154192;27;20243;-63
2023/07/28 05:02:25;;;;;;;4.85;3.40;;;;;;;;;;5154832;27;20197;-63
2023/07/28 05:04:51;;;;;;;6.40;3.67;;;;;;;;;;5153439;27;20204;-63
2023/07/28 05:07:17;;;;;;;6.18;3.58;;;;;;;;;;5151591;27;20195;-63
2023/07/28 05:09:45;;;;;;;4.30;3.35;;;;;;;;;;5151561;27;20198;-63
2023/07/28 05:12:11;;;;;;;5.20;4.05;;;;;;;;;;5147203;27;20317;-63
2023/07/28 05:14:38;;;;;;;4.20;3.85;;;;;;;;;;5155031;27;20209;-63
2023/07/28 05:17:04;;;;;;;5.70;3.97;;;;;;;;;;5151547;27;20502;-63
2023/07/28 05:19:30;;;;;;;3.72;3.50;;;;;;;;;;5151462;27;20198;-64
2023/07/28 05:21:56;;;;;;;3.78;3.47;;;;;;;;;;5141513;27;20207;-58
2023/07/28 05:24:23;;;;;;;5.75;3.88;;;;;;;;;;5145457;27;20250;-58
2023/07/28 05:26:50;;;;;;;4.18;3.80;;;;;;;;;;5144272;27;20547;-58
2023/07/28 05:29:17;;;;;;;4.18;3.70;;;;;;;;;;5137356;27;20232;-57
2023/07/28 05:31:43;;;;;;;4.90;4.30;;;;;;;;;;5146401;27;20207;-57
2023/07/28 05:34:12;;;;;;;5.15;3.78;;;;;;;;;;5149906;27;20462;-57
2023/07/28 05:36:38;;;;;;;4.32;4.00;;;;;;;;;;5150135;27;20276;-57
2023/07/28 05:39:04;;;;;;;8.70;4.55;;;;;;;;;;5146516;27;20236;-58
2023/07/28 05:41:31;;;;;;;6.18;4.10;;;;;;;;;;5144496;27;20350;-58
2023/07/28 05:43:58;;;;;;;6.25;4.10;;;;;;;;;;5144920;27;20218;-58
2023/07/28 05:46:24;;;;;;;5.05;4.43;;;;;;;;;;5134555;27;20210;-57
2023/07/28 05:48:51;;;;;;;4.53;4.13;;;;;;;;;;5142872;27;20220;-58
2023/07/28 05:51:17;;;;;;;4.13;3.83;;;;;;;;;;5142251;27;20239;-58
2023/07/28 05:53:43;;;;;;;3.88;3.65;;;;;;;;;;5152181;27;20217;-58
2023/07/28 05:56:09;;;;;;;3.63;3.38;;;;;;;;;;5150051;27;20211;-58
2023/07/28 05:58:36;;;;;;;4.03;3.63;;;;;;;;;;5140863;27;20251;-58
2023/07/28 06:01:03;;;;;;;4.13;3.83;;;;;;;;;;5152659;27;20230;-58
2023/07/28 06:03:30;;;;;;;3.88;3.67;;;;;;;;;;5153166;27;20335;-57
2023/07/28 06:05:56;;;;;;;4.25;3.95;;;;;;;;;;5140607;27;20210;-59
2023/07/28 06:08:23;;;;;;;4.50;4.05;;;;;;;;;;5140292;27;20210;-57
2023/07/28 06:10:49;;;;;;;5.63;4.43;;;;;;;;;;5143792;27;20199;-58
2023/07/28 06:13:15;;;;;;;4.72;4.28;;;;;;;;;;5139260;27;20297;-58
2023/07/28 06:15:42;;;;;;;6.28;3.75;;;;;;;;;;5143668;27;20221;-58
2023/07/28 06:18:10;;;;;;;3.55;3.45;;;;;;;;;;5142894;27;20246;-58
2023/07/28 06:20:36;;;;;;;7.30;4.32;;;;;;;;;;5147237;27;20545;-58
2023/07/28 06:23:02;;;;;;;4.40;4.00;;;;;;;;;;5143574;27;20211;-57
2023/07/28 06:25:28;;;;;;;8.05;4.47;;;;;;;;;;5148193;27;20547;-58
2023/07/28 06:27:55;;;;;;;3.88;3.58;;;;;;;;;;5151779;27;20221;-59
2023/07/28 06:30:21;;;;;;;5.75;4.57;;;;;;;;;;5139875;27;20548;-58
2023/07/28 06:32:47;;;;;;;7.43;4.35;;;;;;;;;;5139129;27;20409;-57
2023/07/28 06:35:15;;;;;;;6.45;4.13;;;;;;;;;;5145715;27;20253;-58
2023/07/28 06:37:42;;;;;;;4.40;4.00;;;;;;;;;;5138755;27;20322;-58
2023/07/28 06:40:09;;;;;;;5.55;4.05;;;;;;;;;;5147663;27;20222;-57
2023/07/28 06:42:36;;;;;;;4.63;4.22;;;;;;;;;;5143266;27;20210;-58
2023/07/28 06:45:02;;;;;;;5.28;4.50;;;;;;;;;;5143364;27;20555;-57
2023/07/28 06:47:29;;;;;;;4.85;4.40;;;;;;;;;;5145377;27;20206;-58
2023/07/28 06:49:55;;;;;;;7.07;4.50;;;;;;;;;;5144149;27;20255;-58
2023/07/28 06:52:22;;;;;;;5.30;4.82;;;;;;;;;;5143825;27;20206;-58
2023/07/28 06:54:49;;;;;;;6.78;4.18;;;;;;;;;;5143507;27;20226;-58
2023/07/28 06:57:16;;;;;;;5.57;4.60;;;;;;;;;;5148966;27;20353;-58
2023/07/28 06:59:42;;;;;;;4.60;4.20;;;;;;;;;;5150075;27;20667;-58
2023/07/28 07:02:09;;;;;;;6.95;4.25;;;;;;;;;;5144991;27;20617;-58
2023/07/28 07:04:35;;;;;;;6.07;4.45;;;;;;;;;;5137640;27;20234;-58
2023/07/28 07:07:02;;;;;;;9.15;4.03;;;;;;;;;;5138766;27;20214;-58
2023/07/28 07:09:30;;;;;;;4.65;4.25;;;;;;;;;;5147424;27;20212;-57
2023/07/28 07:11:56;;;;;;;4.40;4.10;;;;;;;;;;5148142;27;20210;-56
2023/07/28 07:14:22;;;;;;;5.07;4.63;;;;;;;;;;5137893;27;20243;-56
2023/07/28 07:16:49;;;;;;;4.63;4.22;;;;;;;;;;5142523;27;20217;-57
2023/07/28 07:19:15;;;;;;;8.43;4.30;;;;;;;;;;5146326;27;20283;-58
2023/07/28 07:21:41;;;;;;;4.93;4.45;;;;;;;;;;5147115;27;20232;-56
2023/07/28 07:24:09;;;;;;;4.85;4.53;;;;;;;;;;5139044;27;20246;-57
2023/07/28 07:26:37;;;;;;;7.68;4.28;;;;;;;;;;5146805;27;20210;-58
2023/07/28 07:29:03;;;;;;;5.30;4.43;;;;;;;;;;5147054;27;20222;-56
2023/07/28 07:31:30;;;;;;;5.20;4.65;;;;;;;;;;5138626;27;20474;-58
2023/07/28 07:33:56;;;;;;;6.18;4.53;;;;;;;;;;5142553;27;20529;-58
2023/07/28 07:36:22;;;;;;;5.75;4.90;;;;;;;;;;5150351;27;20206;-58
2023/07/28 07:38:49;;;;;;;4.65;4.25;;;;;;;;;;5143444;27;20209;-57
2023/07/28 07:41:19;;;;;;;6.00;5.07;;;;;;;;;;5149837;27;20504;-58
2023/07/28 07:43:47;;;;;;;7.03;5.18;;;;;;;;;;5145799;27;20273;-58
2023/07/28 07:46:13;;;;;;;9.65;5.20;;;;;;;;;;5140380;27;20404;-58
2023/07/28 07:48:39;;;;;;;7.03;5.55;;;;;;;;;;5146071;27;20438;-56
2023/07/28 07:51:06;;;;;;;6.10;5.50;;;;;;;;;;5145260;27;20208;-57
2023/07/28 07:53:32;;;;;;;7.60;5.35;;;;;;;;;;5141094;27;20448;-58
2023/07/28 07:55:58;;;;;;;6.47;5.25;;;;;;;;;;5141169;27;20209;-58
2023/07/28 07:58:25;;;;;;;5.68;5.07;;;;;;;;;;5138690;27;20203;-59
2023/07/28 08:00:52;;;;;;;4.60;4.35;;;;;;;;;;5140959;27;20249;-59
2023/07/28 08:03:19;;;;;;;5.22;4.32;;;;;;;;;;5141017;27;20198;-57
2023/07/28 08:05:45;;;;;;;6.43;4.05;;;;;;;;;;5143922;27;20253;-58
2023/07/28 08:08:11;;;;;;;4.55;3.97;;;;;;;;;;5143688;27;20210;-58
2023/07/28 08:10:39;;;;;;;4.75;4.43;;;;;;;;;;5140967;27;20207;-57
2023/07/28 08:13:05;;;;;;;5.13;4.70;;;;;;;;;;5147273;27;20514;-57
2023/07/28 08:15:32;;;;;;;6.28;4.70;;;;;;;;;;5140327;27;20247;-58
2023/07/28 08:17:59;;;;;;;5.05;4.70;;;;;;;;;;5138644;27;20214;-58
2023/07/28 08:20:26;;;;;;;5.20;4.80;;;;;;;;;;5140498;27;20205;-58
2023/07/28 08:22:52;;;;;;;8.52;5.00;;;;;;;;;;5140301;27;20411;-59
2023/07/28 08:25:19;;;;;;;4.93;4.63;;;;;;;;;;5143826;27;20206;-59
2023/07/28 08:27:45;;;;;;;6.95;4.40;;;;;;;;;;5149565;27;20229;-58
2023/07/28 08:30:12;;;;;;;5.53;5.03;;;;;;;;;;5143295;27;20228;-57
2023/07/28 08:32:38;;;;;;;6.32;5.72;;;;;;;;;;5142822;27;20206;-59
2023/07/28 08:35:06;;;;;;;8.48;5.25;;;;;;;;;;5146187;27;20232;-59
2023/07/28 08:37:32;;;;;;;5.97;5.28;;;;;;;;;;5145085;27;20510;-59
2023/07/28 08:39:59;;;;;;;5.97;5.40;;;;;;;;;;5147287;27;20237;-59
2023/07/28 08:42:25;;;;;;;7.25;5.90;;;;;;;;;;5142145;27;20228;-58
2023/07/28 08:44:52;;;;;;;9.43;6.13;;;;;;;;;;5145711;27;20526;-58
2023/07/28 08:47:19;;;;;;;7.30;6.60;;;;;;;;;;5143908;27;20563;-57
2023/07/28 08:49:45;;;;;;;9.98;6.57;;;;;;;;;;5146822;27;20210;-58
2023/07/28 08:52:15;;;;;;;10.40;6.20;;;;;;;;;;5139304;27;20403;-58
2023/07/28 08:54:41;;;;;;;8.18;6.30;;;;;;;;;;5142118;27;20218;-58
2023/07/28 08:57:09;;;;;;;6.43;5.82;;;;;;;;;;5145513;27;20255;-56
2023/07/28 08:59:36;;;;;;;5.75;5.07;;;;;;;;;;5144397;27;20481;-58
2023/07/28 09:02:04;;;;;;;8.20;5.45;;;;;;;;;;5139705;27;20268;-58
2023/07/28 09:04:30;;;;;;;5.40;4.90;;;;;;;;;;5137000;27;20247;-56
2023/07/28 09:06:57;;;;;;;5.28;4.88;;;;;;;;;;5141588;27;20210;-58
2023/07/28 09:09:24;;;;;;;9.68;5.32;;;;;;;;;;5140011;27;20267;-56
2023/07/28 09:11:51;;;;;;;5.95;4.55;;;;;;;;;;5139721;27;20541;-58
2023/07/28 09:14:18;;;;;;;7.22;5.40;;;;;;;;;;5147838;27;20465;-57
2023/07/28 09:16:45;;;;;;;6.63;4.70;;;;;;;;;;5141760;27;20801;-58
2023/07/28 09:19:11;;;;;;;7.03;4.75;;;;;;;;;;5141616;27;20210;-56
2023/07/28 09:21:38;;;;;;;6.03;4.32;;;;;;;;;;5142596;27;20405;-58
2023/07/28 09:24:05;;;;;;;9.40;4.50;;;;;;;;;;5140974;27;20213;-58
2023/07/28 09:26:39;;;;;;;4.90;3.85;;;;;;;;;;5150096;27;20229;-57
2023/07/28 09:29:11;;;;;;;4.20;3.35;;;;;;;;;;5141496;27;20226;-57
2023/07/28 09:31:38;;;;;;;3.85;3.38;;;;;;;;;;5140916;27;20198;-58
2023/07/28 09:34:22;;;;;;;4.75;3.55;;;;;;;;;;5144010;27;20214;-56
2023/07/28 09:36:51;;;;;;;4.05;3.65;;;;;;;;;;5140586;27;20210;-58
2023/07/28 09:39:18;;;;;;;4.80;3.30;;;;;;;;;;5143065;27;20256;-58
2023/07/28 09:41:47;;;;;;;3.35;3.15;;;;;;;;;;5147170;27;20255;-56
2023/07/28 09:44:13;;;;;;;3.53;3.22;;;;;;;;;;5150199;27;20526;-58
2023/07/28 09:46:50;;;;;;;6.75;3.28;;;;;;;;;;5141994;27;20231;-57
2023/07/28 09:49:16;;;;;;;3.40;3.03;;;;;;;;;;5150689;27;20434;-58
2023/07/28 09:51:46;;;;;;;3.17;2.85;;;;;;;;;;5148232;27;20214;-56
2023/07/28 09:54:13;;;;;;;2.90;2.58;;;;;;;;;;5148537;27;20296;-56
2023/07/28 09:56:40;;;;;;;2.83;2.63;;;;;;;;;;5148182;27;20216;-56
2023/07/28 09:59:09;;;;;;;3.13;2.55;;;;;;;;;;5152147;27;20243;-57
2023/07/28 10:01:36;;;;;;;2.20;2.10;;;;;;;;;;5152330;27;20559;-58
2023/07/28 10:04:02;;;;;;;2.63;2.42;;;;;;;;;;5150869;27;20362;-58
2023/07/28 10:06:29;;;;;;;2.72;2.53;;;;;;;;;;5141513;27;20382;-58
2023/07/28 10:08:56;;;;;;;2.63;2.40;;;;;;;;;;5140275;27;20210;-58
2023/07/28 10:11:22;;;;;;;2.40;2.30;;;;;;;;;;5148608;27;20247;-59
2023/07/28 10:13:52;;;;;;;2.45;2.35;;;;;;;;;;5148959;27;20216;-57
2023/07/28 10:16:19;;;;;;;2.78;2.10;;;;;;;;;;5148229;27;20206;-58
2023/07/28 10:18:52;;;;;;;2.50;2.20;;;;;;;;;;5147147;27;20209;-58
2023/07/28 10:21:19;;;;;;;2.60;2.50;;;;;;;;;;5147018;27;20245;-58
2023/07/28 10:23:47;;;;;;;2.50;2.38;;;;;;;;;;5142543;27;20282;-58
2023/07/28 10:26:13;;;;;;;2.28;2.17;;;;;;;;;;5148573;27;20231;-58
2023/07/28 10:28:41;;;;;;;2.60;1.98;;;;;;;;;;5145518;27;20256;-57
2023/07/28 10:31:08;;;;;;;2.53;2.22;;;;;;;;;;5139921;27;20522;-57
2023/07/28 10:33:36;;;;;;;2.40;2.22;;;;;;;;;;5139195;27;20629;-58
2023/07/28 10:36:13;;;;;;;3.03;2.15;;;;;;;;;;5140931;27;20209;-58
2023/07/28 10:38:39;;;;;;;1.85;1.80;;;;;;;;;;5139395;27;20209;-57
2023/07/28 10:41:09;;;;;;;2.10;2.00;;;;;;;;;;5149169;27;20536;-57
2023/07/28 10:43:36;;;;;;;2.05;1.95;;;;;;;;;;5149011;27;20218;-57
2023/07/28 10:46:02;;;;;;;4.82;2.10;;;;;;;;;;5145865;27;20253;-56
2023/07/28 10:48:29;;;;;;;3.90;1.95;;;;;;;;;;5142414;27;20205;-56
2023/07/28 10:50:56;;;;;;;2.38;2.17;;;;;;;;;;5147350;27;20217;-57
2023/07/28 10:53:22;;;;;;;2.60;2.40;;;;;;;;;;5140313;27;20430;-55
2023/07/28 10:55:49;;;;;;;4.63;2.47;;;;;;;;;;5142395;27;20380;-55
2023/07/28 10:58:15;;;;;;;2.72;2.30;;;;;;;;;;5145937;27;20474;-56
2023/07/28 11:00:41;;;;;;;3.00;2.20;;;;;;;;;;5144676;27;20221;-57
2023/07/28 11:03:09;;;;;;;2.45;2.20;;;;;;;;;;5141577;27;20218;-56
2023/07/28 11:05:35;;;;;;;2.55;2.10;;;;;;;;;;5145390;27;20394;-57
2023/07/28 11:08:03;;;;;;;2.20;2.00;;;;;;;;;;5140166;27;20218;-58
2023/07/28 11:10:29;;;;;;;2.95;1.95;;;;;;;;;;5142733;27;20209;-58
2023/07/28 11:12:57;;;;;;;1.65;1.60;;;;;;;;;;5150984;27;20208;-58
2023/07/28 11:15:24;;;;;;;2.15;2.00;;;;;;;;;;5150967;27;20220;-58
2023/07/28 11:17:51;;;;;;;4.15;1.83;;;;;;;;;;5151267;27;20462;-58
2023/07/28 11:20:17;;;;;;;1.75;1.65;;;;;;;;;;5148066;27;20466;-56
2023/07/28 11:22:44;;;;;;;1.65;1.60;;;;;;;;;;5139428;27;20232;-57
2023/07/28 11:25:12;;;;;;;2.13;1.98;;;;;;;;;;5146122;27;20394;-57
2023/07/28 11:27:39;;;;;;;1.90;1.90;;;;;;;;;;5146730;27;20247;-57
2023/07/28 11:30:06;;;;;;;1.60;1.50;;;;;;;;;;5140039;27;20275;-56
2023/07/28 11:32:34;;;;;;;1.70;1.60;;;;;;;;;;5150107;27;20446;-58
2023/07/28 11:35:03;;;;;;;3.00;1.60;;;;;;;;;;5150434;27;20216;-58
2023/07/28 11:37:30;;;;;;;3.35;1.90;;;;;;;;;;5140042;27;20210;-58
2023/07/28 11:39:56;;;;;;;2.15;1.80;;;;;;;;;;5146395;27;20291;-57
2023/07/28 11:42:24;;;;;;;1.88;1.77;;;;;;;;;;5149467;27;20231;-57
2023/07/28 11:44:50;;;;;;;1.70;1.60;;;;;;;;;;5150876;27;20485;-57
2023/07/28 11:47:18;;;;;;;3.45;1.50;;;;;;;;;;5145754;27;20247;-56
2023/07/28 11:49:46;;;;;;;1.60;1.60;;;;;;;;;;5144883;27;20202;-58
2023/07/28 11:52:13;;;;;;;1.60;1.50;;;;;;;;;;5155187;27;20201;-58
2023/07/28 11:54:39;;;;;;;1.30;1.30;;;;;;;;;;5142357;27;20209;-58
2023/07/28 11:57:08;;;;;;;1.58;1.30;;;;;;;;;;5142054;27;20209;-57
2023/07/28 11:59:36;;;;;;;4.07;1.80;;;;;;;;;;5140052;27;20419;-57
2023/07/28 12:02:04;;;;;;;2.42;1.50;;;;;;;;;;5137375;27;20218;-57
2023/07/28 12:04:31;;;;;;;3.35;1.80;;;;;;;;;;5142614;27;20525;-57
2023/07/28 12:07:07;;;;;;;1.60;1.50;;;;;;;;;;5137054;27;20210;-58
2023/07/28 12:09:34;;;;;;;1.73;1.63;;;;;;;;;;5143833;27;20210;-57
2023/07/28 12:12:00;;;;;;;1.75;1.45;;;;;;;;;;5145694;27;20209;-55
2023/07/28 12:14:33;;;;;;;2.58;1.67;;;;;;;;;;5140573;27;20205;-57
2023/07/28 12:17:02;;;;;;;2.00;1.88;;;;;;;;;;5142005;27;20557;-57
2023/07/28 12:19:28;;;;;;;1.70;1.70;;;;;;;;;;5146591;27;20205;-57
2023/07/28 12:21:55;;;;;;;4.13;1.77;;;;;;;;;;5139871;27;20278;-57
2023/07/28 12:24:21;;;;;;;4.25;2.35;;;;;;;;;;5145308;27;20218;-57
2023/07/28 12:26:47;;;;;;;2.33;2.13;;;;;;;;;;5146234;27;20215;-57
2023/07/28 12:29:13;;;;;;;1.75;1.75;;;;;;;;;;5148380;27;20536;-58
2023/07/28 12:31:40;;;;;;;2.53;2.33;;;;;;;;;;5141508;27;20207;-57
2023/07/28 12:34:07;;;;;;;3.53;2.50;;;;;;;;;;5139268;27;20218;-58
2023/07/28 12:36:33;;;;;;;2.88;2.28;;;;;;;;;;5137534;27;20239;-58
2023/07/28 12:39:00;;;;;;;2.58;2.28;;;;;;;;;;5140170;27;20278;-56
2023/07/28 12:41:26;;;;;;;2.50;2.40;;;;;;;;;;5137117;27;20205;-58
2023/07/28 12:43:52;;;;;;;4.10;2.40;;;;;;;;;;5140316;27;20616;-57
2023/07/28 12:46:19;;;;;;;2.42;2.28;;;;;;;;;;5146170;27;20724;-58
2023/07/28 12:48:45;;;;;;;3.08;2.05;;;;;;;;;;5136636;27;20281;-58
2023/07/28 12:51:12;;;;;;;2.60;2.35;;;;;;;;;;5145144;27;20209;-57
2023/07/28 12:53:39;;;;;;;1.90;1.90;;;;;;;;;;5149131;27;20205;-57
2023/07/28 12:56:05;;;;;;;3.03;2.78;;;;;;;;;;5148044;27;20549;-58
2023/07/28 12:58:33;;;;;;;2.72;2.60;;;;;;;;;;5149563;27;20458;-57
2023/07/28 13:01:01;;;;;;;2.75;2.55;;;;;;;;;;5149223;27;20209;-57
2023/07/28 13:03:27;;;;;;;2.50;2.30;;;;;;;;;;5151967;27;20278;-58
2023/07/28 13:05:53;;;;;;;2.80;2.60;;;;;;;;;;5149137;27;20457;-58
2023/07/28 13:08:21;;;;;;;2.33;2.20;;;;;;;;;;5147111;27;20541;-57
2023/07/28 13:10:47;;;;;;;2.55;2.10;;;;;;;;;;5141624;27;20214;-56
2023/07/28 13:13:14;;;;;;;2.42;2.30;;;;;;;;;;5145281;27;20434;-57
2023/07/28 13:15:40;;;;;;;4.97;2.42;;;;;;;;;;5149849;27;20513;-57
2023/07/28 13:18:06;;;;;;;2.35;2.25;;;;;;;;;;5140341;27;20251;-58
2023/07/28 13:20:32;;;;;;;2.50;2.40;;;;;;;;;;5145237;27;20236;-57
2023/07/28 13:22:59;;;;;;;2.40;2.30;;;;;;;;;;5142453;27;20791;-59
2023/07/28 13:25:26;;;;;;;2.10;2.00;;;;;;;;;;5142864;27;20209;-59
2023/07/28 13:27:52;;;;;;;2.50;2.40;;;;;;;;;;5142921;27;20246;-59
2023/07/28 13:30:19;;;;;;;2.10;2.10;;;;;;;;;;5149736;27;20213;-58
2023/07/28 13:32:45;;;;;;;3.55;2.03;;;;;;;;;;5149194;27;20208;-59
2023/07/28 13:35:12;;;;;;;2.08;2.08;;;;;;;;;;5143683;27;20709;-59
2023/07/28 13:37:38;;;;;;;1.92;1.90;;;;;;;;;;5142472;27;20420;-58
2023/07/28 13:40:05;;;;;;;2.65;1.88;;;;;;;;;;5149282;27;20457;-57
2023/07/28 13:42:32;;;;;;;3.35;2.38;;;;;;;;;;5151400;27;20225;-58
2023/07/28 13:44:58;;;;;;;2.53;2.22;;;;;;;;;;5139988;27;20446;-58
2023/07/28 13:47:25;;;;;;;2.45;2.28;;;;;;;;;;5151249;27;20275;-57
2023/07/28 13:49:51;;;;;;;2.28;2.15;;;;;;;;;;5143453;27;20275;-58
2023/07/28 13:52:17;;;;;;;2.78;2.35;;;;;;;;;;5148760;27;20246;-57
2023/07/28 13:54:44;;;;;;;3.15;2.25;;;;;;;;;;5148831;27;20228;-56
2023/07/28 13:57:11;;;;;;;5.93;2.80;;;;;;;;;;5141397;27;20232;-57
2023/07/28 13:59:38;;;;;;;3.80;2.80;;;;;;;;;;5145513;27;20219;-57
2023/07/28 14:02:04;;;;;;;4.15;2.95;;;;;;;;;;5147937;27;20209;-58
2023/07/28 14:04:31;;;;;;;4.65;2.60;;;;;;;;;;5143322;27;20209;-58
2023/07/28 14:06:58;;;;;;;4.05;2.78;;;;;;;;;;5139555;27;20233;-58
2023/07/28 14:09:24;;;;;;;5.05;3.08;;;;;;;;;;5145040;27;20217;-57
2023/07/28 14:11:51;;;;;;;8.60;2.92;;;;;;;;;;5149226;27;20217;-58
2023/07/28 14:14:17;;;;;;;4.57;3.13;;;;;;;;;;5147122;27;20247;-58
2023/07/28 14:16:44;;;;;;;9.02;3.33;;;;;;;;;;5147816;27;20229;-57
2023/07/28 14:19:11;;;;;;;4.63;3.05;;;;;;;;;;5142078;27;20210;-56
2023/07/28 14:21:37;;;;;;;3.97;3.05;;;;;;;;;;5151836;27;20484;-58
2023/07/28 14:24:04;;;;;;;3.75;2.90;;;;;;;;;;5143931;27;20335;-58
2023/07/28 14:26:30;;;;;;;2.92;2.72;;;;;;;;;;5148657;27;20216;-58
2023/07/28 14:28:56;;;;;;;3.85;3.00;;;;;;;;;;5151699;27;20265;-58
2023/07/28 14:31:23;;;;;;;5.95;2.88;;;;;;;;;;5149570;27;20512;-58
2023/07/28 14:33:50;;;;;;;5.07;2.80;;;;;;;;;;5142849;27;20202;-58
2023/07/28 14:36:17;;;;;;;3.50;2.45;;;;;;;;;;5148995;27;20510;-58
2023/07/28 14:38:43;;;;;;;3.28;2.42;;;;;;;;;;5148928;27;20222;-58
2023/07/28 14:41:09;;;;;;;6.97;2.50;;;;;;;;;;5143256;27;20213;-58
2023/07/28 14:43:36;;;;;;;3.20;3.00;;;;;;;;;;5151083;27;20419;-58